createdAt,value
2019-02-02T00:00:43.378Z,26.80
2019-02-02T00:03:46.833Z,27.07
2019-02-02T00:06:50.273Z,28.50
2019-02-02T00:09:53.700Z,26.80
2019-02-02T00:12:57.140Z,25.07
2019-02-02T00:16:00.580Z,23.37
2019-02-02T00:19:04.532Z,24.30
2019-02-02T00:22:07.969Z,27.93
2019-02-02T00:25:11.533Z,23.30
2019-02-02T00:28:14.995Z,30.53
2019-02-02T00:31:18.428Z,24.23
2019-02-02T00:34:21.889Z,31.87
2019-02-02T00:37:25.348Z,26.47
2019-02-02T00:40:28.777Z,26.67
2019-02-02T00:43:32.213Z,26.37
2019-02-02T00:46:35.629Z,26.17
2019-02-02T00:49:39.074Z,25.10
2019-02-02T00:52:42.561Z,24.83
2019-02-02T00:55:46.003Z,23.87
2019-02-02T00:58:49.436Z,26.60
2019-02-02T01:01:52.888Z,25.47
2019-02-02T01:04:56.343Z,23.97
2019-02-02T01:07:59.808Z,25.77
2019-02-02T01:11:05.069Z,22.37
2019-02-02T01:14:08.629Z,20.80
2019-02-02T01:17:12.076Z,23.07
2019-02-02T01:20:15.948Z,22.27
2019-02-02T01:23:19.397Z,24.27
2019-02-02T01:26:22.835Z,24.40
2019-02-02T01:29:26.265Z,25.70
2019-02-02T01:32:29.689Z,21.20
2019-02-02T01:35:33.133Z,23.73
2019-02-02T01:38:36.572Z,23.00
2019-02-02T01:41:39.997Z,24.33
2019-02-02T01:44:43.441Z,21.80
2019-02-02T01:47:46.858Z,22.20
2019-02-02T01:50:50.322Z,24.40
2019-02-02T01:53:53.732Z,22.87
2019-02-02T01:56:57.168Z,21.47
2019-02-02T02:00:00.606Z,21.53
2019-02-02T02:03:04.130Z,22.97
2019-02-02T02:06:07.600Z,20.90
2019-02-02T02:09:11.309Z,24.00
2019-02-02T02:12:14.724Z,21.67
2019-02-02T02:15:19.500Z,22.00
2019-02-02T02:18:22.944Z,25.27
2019-02-02T02:21:26.375Z,24.30
2019-02-02T02:24:29.799Z,23.93
2019-02-02T02:27:33.216Z,25.13
2019-02-02T02:30:36.652Z,23.73
2019-02-02T02:33:40.077Z,24.97
2019-02-02T02:36:43.507Z,25.77
2019-02-02T02:39:46.949Z,25.07
2019-02-02T02:42:50.905Z,29.50
2019-02-02T02:45:54.344Z,28.97
2019-02-02T02:48:57.769Z,27.80
2019-02-02T02:52:01.205Z,27.47
2019-02-02T02:55:07.780Z,31.23
2019-02-02T02:58:11.239Z,29.70
2019-02-02T03:01:14.667Z,30.70
2019-02-02T03:04:18.109Z,27.20
2019-02-02T03:07:21.552Z,29.47
2019-02-02T03:10:27.729Z,32.27
2019-02-02T03:13:31.168Z,31.87
2019-02-02T03:16:34.590Z,33.57
2019-02-02T03:19:38.136Z,30.10
2019-02-02T03:22:41.606Z,32.77
2019-02-02T03:25:45.044Z,33.40
2019-02-02T03:28:53.606Z,29.47
2019-02-02T03:31:53.613Z,32.77
2019-02-02T03:34:57.211Z,31.90
2019-02-02T03:38:00.712Z,34.13
2019-02-02T03:41:04.161Z,33.07
2019-02-02T03:44:07.569Z,31.13
2019-02-02T03:47:11.005Z,30.23
2019-02-02T03:50:14.712Z,31.00
2019-02-02T03:53:18.153Z,31.27
2019-02-02T03:56:21.568Z,31.53
2019-02-02T03:59:25.009Z,31.57
2019-02-02T04:02:28.441Z,31.30
2019-02-02T04:05:32.148Z,32.17
2019-02-02T04:08:35.580Z,33.77
2019-02-02T04:11:38.994Z,32.53
2019-02-02T04:14:42.435Z,32.97
2019-02-02T04:17:45.868Z,31.73
2019-02-02T04:20:49.316Z,34.73
2019-02-02T04:23:52.738Z,32.50
2019-02-02T04:26:56.173Z,32.20
2019-02-02T04:29:59.592Z,33.00
2019-02-02T04:33:03.036Z,32.83
2019-02-02T04:36:06.457Z,31.43
2019-02-02T04:39:09.897Z,32.80
2019-02-02T04:42:13.313Z,33.87
2019-02-02T04:45:17.792Z,33.90
2019-02-02T04:48:21.210Z,37.83
2019-02-02T04:51:24.645Z,38.23
2019-02-02T04:54:28.069Z,38.23
2019-02-02T04:57:31.508Z,47.33
2019-02-02T05:00:34.912Z,49.40
2019-02-02T05:03:38.354Z,39.77
2019-02-02T05:06:41.792Z,51.43
2019-02-02T05:09:45.228Z,41.07
2019-02-02T05:12:49.011Z,39.30
2019-02-02T05:15:52.560Z,35.60
2019-02-02T05:18:56.041Z,47.77
2019-02-02T05:21:59.492Z,45.40
2019-02-02T05:25:02.927Z,36.10
2019-02-02T05:28:06.374Z,36.23
2019-02-02T05:31:09.792Z,34.83
2019-02-02T05:34:13.230Z,39.03
2019-02-02T05:37:16.643Z,34.87
2019-02-02T05:40:22.289Z,37.70
2019-02-02T05:43:25.733Z,33.70
2019-02-02T05:46:29.168Z,37.03
2019-02-02T05:49:32.581Z,36.17
2019-02-02T05:52:36.033Z,34.60
2019-02-02T05:55:39.453Z,36.13
2019-02-02T05:58:42.897Z,33.07
2019-02-02T06:01:46.332Z,35.07
2019-02-02T06:04:49.765Z,34.37
2019-02-02T06:07:53.193Z,37.80
2019-02-02T06:10:56.644Z,32.33
2019-02-02T06:14:00.077Z,36.93
2019-02-02T06:17:03.513Z,37.10
2019-02-02T06:20:10.156Z,36.47
2019-02-02T06:23:13.604Z,35.57
2019-02-02T06:26:17.033Z,37.13
2019-02-02T06:29:20.474Z,36.03
2019-02-02T06:32:23.894Z,39.23
2019-02-02T06:35:27.336Z,37.33
2019-02-02T06:38:30.748Z,35.57
2019-02-02T06:41:34.183Z,37.63
2019-02-02T06:44:37.635Z,40.17
2019-02-02T06:47:41.059Z,44.03
2019-02-02T06:50:44.499Z,45.27
2019-02-02T06:53:47.913Z,42.53
2019-02-02T06:56:51.359Z,41.07
2019-02-02T06:59:54.802Z,41.90
2019-02-02T07:02:58.257Z,40.83
2019-02-02T07:06:01.697Z,49.17
2019-02-02T23:06:55.986Z,124.23
2019-02-02T23:10:05.233Z,122.70
2019-02-02T23:13:26.855Z,122.33
2019-02-02T23:16:30.283Z,119.67
2019-02-02T23:19:33.749Z,119.23
2019-02-02T23:22:37.173Z,124.53
2019-02-02T23:25:40.601Z,123.83
2019-02-02T23:28:44.028Z,132.20
2019-02-02T23:31:47.468Z,128.73
2019-02-02T23:34:50.921Z,134.30
2019-02-02T23:37:54.507Z,126.30
2019-02-02T23:40:57.960Z,132.60
2019-02-02T23:44:01.389Z,122.33
2019-02-02T23:47:04.871Z,127.00
2019-02-02T23:50:10.143Z,127.87
2019-02-02T23:53:13.643Z,131.87
2019-02-02T23:56:17.061Z,130.90
2019-02-02T23:59:20.789Z,141.47
